Data for 12/11/2017

Time Sea-Level Adjusted Pressure Absolute Pressure Temperature Relative Humidity Dew Point   
(mb) (inHg) (mb) (inHg) (C) (F) (%) (C) (F)
00:05 1032 30.47 861 25.43 -3.2 26.2 55 -10.9 12.3
00:10 1032 30.47 861 25.43 -3.2 26.2 54 -11.3 11.6
00:15 1032 30.47 861 25.43 -2.4 27.7 51 -11.2 11.9
00:20 1032 30.47 861 25.43 -2.2 28.1 52 -10.6 12.8
00:25 1032 30.47 861 25.43 -2.6 27.4 53 -10.8 12.5
00:30 1032 30.47 861 25.43 -2.3 27.8 52 -10.9 12.3
00:35 1032 30.47 861 25.43 -2 28.4 52 -10.6 13
00:40 1032 30.47 861 25.43 -2.2 28.1 50 -11.1 12
00:45 1032 30.47 861 25.43 -2.8 27 53 -11.2 11.9
00:50 1032 30.47 861 25.43 -3 26.7 53 -11.1 11.9
00:55 1032 30.47 861 25.43 -2.6 27.3 51 -11.3 11.7
01:00 1032 30.47 861 25.43 -2.6 27.3 51 -11.4 11.5
01:05 1032 30.47 861 25.43 -2.7 27.1 50 -11.7 10.9
01:10 1032 30.47 861 25.43 -2.3 27.9 50 -11.4 11.4
01:15 1032 30.47 861 25.43 -2.2 28.1 50 -11.2 11.8
01:20 1032 30.47 861 25.43 -2.3 27.9 50 -11.4 11.4
01:25 1032 30.47 861 25.43 -2.5 27.5 49 -11.7 10.9
01:30 1032 30.47 861 25.43 -2.5 27.5 49 -11.7 10.9
01:35 1032 30.47 861 25.43 -2.1 28.3 47 -12 10.4
01:40 1032 30.47 861 25.43 -1.4 29.4 44 -12.1 10.2
01:45 1032 30.47 861 25.43 -1 30.2 45 -11.5 11.2
01:50 1032 30.47 861 25.43 -1.5 29.4 48 -11.1 12
01:55 1032 30.47 861 25.43 -2.1 28.2 50 -11.2 11.9
02:00 1032 30.47 861 25.43 -1.9 28.6 50 -11.1 12
02:05 1032 30.47 861 25.43 -2.2 28.1 52 -10.7 12.7
02:10 1032 30.47 861 25.43 -2.7 27.1 54 -10.8 12.6
02:15 1032 30.47 861 25.43 -2.2 28 50 -11.2 11.8
02:20 1032 30.47 861 25.43 -2.1 28.2 50 -11.2 11.8
02:25 1031 30.45 861 25.43 -2.4 27.7 50 -11.6 11.2
02:30 1031 30.45 861 25.43 -2.3 27.9 51 -11.2 11.8
02:35 1031 30.45 861 25.43 -2.1 28.3 49 -11.4 11.4
02:40 1031 30.45 861 25.43 -1.7 28.9 47 -11.6 11.2
02:45 1032 30.47 861 25.43 -1.8 28.7 50 -11 12.2
02:50 1032 30.47 861 25.43 -2.7 27.2 53 -10.9 12.3
02:55 1032 30.47 861 25.43 -2.8 27 52 -11.3 11.6
03:00 1031 30.45 861 25.43 -2.7 27.1 52 -11.3 11.6
03:05 1031 30.45 861 25.43 -2.7 27.1 50 -11.7 11
03:10 1031 30.45 861 25.43 -2.6 27.4 48 -12.2 10
03:15 1031 30.45 861 25.43 -2.1 28.3 47 -12 10.4
03:20 1031 30.45 861 25.43 -1.9 28.7 46 -12 10.3
03:25 1031 30.45 861 25.43 -1.4 29.5 47 -11.3 11.6
03:30 1031 30.45 861 25.43 -1.5 29.3 45 -11.8 10.7
03:35 1031 30.45 861 25.43 -1 30.1 44 -12 10.5
03:40 1032 30.47 861 25.43 -0.6 30.9 42 -11.9 10.6
03:45 1032 30.47 861 25.43 -0.6 31 47 -10.5 13.2
03:50 1032 30.47 861 25.43 -1.2 29.8 47 -11.2 11.8
03:55 1032 30.47 861 25.43 -1.1 30 44 -11.9 10.5
04:00 1032 30.47 861 25.43 -0.7 30.7 44 -11.6 11
04:05 1032 30.47 861 25.43 -1.4 29.5 48 -11.2 11.9
04:10 1032 30.47 861 25.43 -1.7 28.9 46 -11.8 10.7
04:15 1032 30.47 861 25.43 -0.8 30.6 44 -11.7 11
04:20 1032 30.47 861 25.43 -1 30.2 47 -11 12.3
04:25 1032 30.47 861 25.43 -1.7 28.9 48 -11.4 11.4
04:30 1032 30.47 861 25.43 -1.8 28.8 48 -11.3 11.6
04:35 1032 30.47 861 25.43 -2.1 28.2 50 -11 12.1
04:40 1032 30.47 861 25.43 -2.3 27.9 50 -11.5 11.3
04:45 1032 30.47 861 25.43 -2.4 27.7 52 -10.9 12.4
04:50 1032 30.47 861 25.43 -3.2 26.3 53 -11.3 11.6
04:55 1032 30.47 861 25.43 -2.8 26.9 50 -11.9 10.5
05:00 1032 30.47 861 25.43 -2.1 28.2 48 -11.8 10.8
05:05 1032 30.47 861 25.43 -2.1 28.2 52 -10.7 12.7
05:10 1032 30.47 861 25.43 -3 26.6 51 -11.8 10.7
05:15 1032 30.47 861 25.43 -2.6 27.4 49 -11.8 10.7
05:20 1032 30.47 861 25.43 -2.2 28 51 -11.1 12
05:25 1032 30.47 861 25.43 -2.2 28 49 -11.6 11.2
05:30 1032 30.47 861 25.43 -1.8 28.7 47 -11.7 10.9
05:35 1032 30.47 861 25.43 -1.5 29.2 49 -10.9 12.3
05:40 1032 30.47 861 25.43 -3.1 26.4 55 -10.9 12.3
05:45 1032 30.47 861 25.43 -3.8 25.2 56 -11.4 11.5
05:50 1032 30.47 861 25.43 -3.4 26 54 -11.4 11.5
05:55 1032 30.47 861 25.43 -3.4 25.9 54 -11.3 11.6
06:00 1032 30.47 861 25.43 -3.4 25.8 54 -11.5 11.2
06:05 1032 30.47 861 25.43 -2.7 27.2 51 -11.4 11.5
06:10 1032 30.47 861 25.43 -2.7 27.2 53 -11 12.1
06:15 1032 30.47 861 25.43 -3.2 26.3 54 -11.2 11.8
06:20 1032 30.47 861 25.43 -3.5 25.8 57 -10.9 12.4
06:25 1032 30.47 861 25.43 -3.8 25.2 56 -11.4 11.5
06:30 1032 30.47 861 25.43 -3 26.5 53 -11.4 11.4
06:35 1032 30.47 861 25.43 -2.5 27.5 52 -11 12.2
06:40 1032 30.47 861 25.43 -2.4 27.6 54 -10.5 13.1
06:45 1032 30.47 861 25.43 -2.1 28.3 48 -11.7 10.9
06:50 1032 30.47 861 25.43 -1.1 30 48 -10.9 12.4
06:55 1032 30.47 861 25.43 -1.2 29.9 46 -11.3 11.6
07:00 1032 30.47 861 25.43 -1 30.3 46 -11.1 12.1
07:05 1032 30.47 861 25.43 -1.5 29.4 48 -11.2 11.9
07:10 1032 30.47 861 25.43 -1.6 29.1 49 -11 12.3
07:15 1032 30.47 861 25.43 -2.1 28.1 51 -10.9 12.4
07:20 1032 30.47 861 25.43 -2.6 27.3 52 -11.1 12.1
07:25 1032 30.47 861 25.43 -2.7 27.2 53 -11.1 12.1
07:30 1032 30.47 861 25.43 -2.5 27.5 51 -11.3 11.7
07:35 1032 30.47 861 25.43 -2.2 28.1 51 -11.1 12
07:40 1032 30.47 861 25.43 -2.1 28.1 56 -9.8 14.4
07:45 1032 30.47 861 25.43 -2.2 28 53 -10.5 13.1
07:50 1032 30.47 861 25.43 -2.3 27.8 56 -10 14.1
07:55 1032 30.47 861 25.43 -2.3 27.9 55 -10.2 13.6
08:00 1032 30.47 861 25.43 -2.4 27.7 55 -10.2 13.6
08:05 1032 30.47 861 25.43 -2.7 27.1 57 -10.1 13.9
08:10 1032 30.47 861 25.43 -3.5 25.7 61 -9.9 14.2
08:15 1032 30.47 861 25.43 -3.4 26 60 -10 14
08:20 1032 30.47 861 25.43 -2.7 27.1 59 -9.7 14.6
08:25 1032 30.47 861 25.43 -2.8 27 57 -10.1 13.8
08:30 1032 30.47 861 25.43 -2.9 26.8 60 -9.6 14.7
08:35 1032 30.47 861 25.43 -3 26.6 60 -9.6 14.6
08:40 1032 30.47 861 25.43 -2.6 27.3 54 -10.6 12.9
08:45 1032 30.47 862 25.45 -1.7 28.9 53 -10.2 13.7
08:50 1032 30.47 862 25.45 -1.4 29.6 52 -10.1 13.8
08:55 1032 30.47 862 25.45 -1.5 29.3 50 -10.6 12.9
09:00 1032 30.47 862 25.45 -1.8 28.7 52 -10.5 13
09:05 1032 30.47 862 25.45 -1.6 29.1 50 -10.6 12.8
09:10 1033 30.5 862 25.45 -1.6 29.2 50 -10.7 12.7
09:15 1033 30.5 862 25.45 -1.8 28.8 54 -10 14
09:20 1032 30.47 862 25.45 -1.9 28.6 52 -10.5 13.1
09:25 1033 30.5 862 25.45 -1.6 29.1 53 -10 13.9
09:30 1033 30.5 862 25.45 -1.2 29.8 49 -10.6 12.9
09:35 1033 30.5 862 25.45 -1.1 29.9 49 -10.5 13.1
09:40 1033 30.5 862 25.45 -0.8 30.7 48 -10.5 13
09:45 1033 30.5 862 25.45 -0.1 31.9 46 -10.4 13.3
09:50 1033 30.5 862 25.45 0.4 32.7 44 -10.4 13.4
09:55 1033 30.5 862 25.45 0.9 33.5 44 -10.2 13.7
10:00 1033 30.5 862 25.45 0.8 33.4 45 -9.9 14.2
10:05 1033 30.5 862 25.45 1.1 33.9 45 -9.6 14.8
10:10 1033 30.5 862 25.45 1.4 34.4 46 -9.1 15.7
10:15 1033 30.5 862 25.45 1.1 34 48 -8.7 16.4
10:20 1033 30.5 862 25.45 0.9 33.6 46 -9.4 15.1
10:25 1033 30.5 862 25.45 1 33.7 46 -9.4 15.1
10:30 1033 30.5 862 25.45 1.3 34.3 41 -10.7 12.7
10:35 1033 30.5 862 25.45 1.3 34.3 41 -10.4 13.2
10:40 1033 30.5 862 25.45 1.8 35.2 39 -10.6 12.9
10:45 1033 30.5 862 25.45 1.7 35.1 40 -10.6 12.9
10:50 1033 30.5 862 25.45 1.7 35 40 -10.7 12.8
10:55 1033 30.5 862 25.45 2.1 35.7 38 -10.9 12.3
11:00 1033 30.5 862 25.45 2.1 35.8 38 -10.9 12.5
11:05 1033 30.5 862 25.45 2.3 36.1 38 -10.6 12.9
11:10 1033 30.5 862 25.45 2.6 36.6 38 -10.2 13.6
11:15 1033 30.5 862 25.45 2.4 36.3 39 -10.2 13.7
11:20 1033 30.5 862 25.45 2.4 36.2 38 -10.7 12.7
11:25 1032 30.47 862 25.45 2.7 36.9 38 -10.3 13.4
11:30 1032 30.47 862 25.45 3 37.5 39 -9.7 14.6
11:35 1032 30.47 862 25.45 2.7 36.9 38 -10.1 13.8
11:40 1032 30.47 862 25.45 2.4 36.4 39 -10.3 13.4
11:45 1032 30.47 861 25.43 2.7 36.8 36 -11.1 12.1
11:50 1032 30.47 861 25.43 2.7 36.9 38 -10.3 13.5
11:55 1032 30.47 861 25.43 2.8 37 37 -10.6 12.9
12:00 1032 30.47 861 25.43 2.8 37.1 38 -10.3 13.5
12:05 1032 30.47 861 25.43 3.3 37.9 36 -10.2 13.6
12:10 1032 30.47 861 25.43 3.5 38.3 37 -10 14
12:15 1032 30.47 861 25.43 2.9 37.3 38 -10 14.1
12:20 1032 30.47 861 25.43 3 37.4 39 -9.8 14.4
12:25 1032 30.47 861 25.43 2.8 37.1 38 -10.1 13.9
12:30 1032 30.47 861 25.43 3 37.4 37 -10.3 13.5
12:35 1032 30.47 861 25.43 2.8 37 39 -9.9 14.1
12:40 1032 30.47 861 25.43 2.8 37.1 40 -9.5 14.9
12:45 1032 30.47 861 25.43 2.7 36.9 41 -9.2 15.4
12:50 1032 30.47 861 25.43 2.9 37.2 40 -9.4 15
12:55 1032 30.47 861 25.43 2.9 37.1 39 -9.8 14.3
13:00 1032 30.47 861 25.43 3.2 37.7 39 -9.6 14.7
13:05 1032 30.47 861 25.43 3.1 37.6 40 -9.4 15.1
13:10 1032 30.47 861 25.43 2.6 36.7 40 -9.7 14.6
13:15 1032 30.47 861 25.43 3 37.4 39 -9.6 14.7
13:20 1032 30.47 861 25.43 3.2 37.7 39 -9.5 14.8
13:25 1032 30.47 861 25.43 3.8 38.9 35 -10.4 13.2
13:30 1032 30.47 861 25.43 4.3 39.8 32 -10.9 12.3
13:35 1032 30.47 861 25.43 4.4 39.9 33 -10.6 12.9
13:40 1031 30.45 861 25.43 4.1 39.4 33 -10.8 12.6
13:45 1031 30.45 861 25.43 4.1 39.3 35 -10.2 13.7
13:50 1031 30.45 861 25.43 4 39.1 35 -10.2 13.6
13:55 1031 30.45 861 25.43 4.1 39.4 35 -10.1 13.8
14:00 1031 30.45 860 25.4 3.5 38.2 36 -10.4 13.3
14:05 1031 30.45 860 25.4 3.3 38 34 -11 12.2
14:10 1031 30.45 860 25.4 4.1 39.4 32 -11.2 11.9
14:15 1031 30.45 860 25.4 4.2 39.5 33 -10.8 12.5
14:20 1031 30.45 860 25.4 4.8 40.6 33 -10.4 13.4
14:25 1031 30.45 860 25.4 5 41 32 -10.5 13.2
14:30 1031 30.45 860 25.4 4.7 40.5 33 -10.3 13.5
14:35 1031 30.45 860 25.4 5 41 31 -10.6 12.9
14:40 1031 30.45 860 25.4 5.5 41.9 31 -10.3 13.5
14:45 1031 30.45 860 25.4 5.7 42.2 31 -10.1 13.9
14:50 1031 30.45 860 25.4 5.9 42.7 32 -9.6 14.6
14:55 1031 30.45 860 25.4 5.5 41.9 34 -9.2 15.5
15:00 1031 30.45 860 25.4 5.4 41.7 34 -9.2 15.4
15:05 1031 30.45 860 25.4 5.3 41.5 35 -8.8 16.1
15:10 1031 30.45 860 25.4 5 41 34 -9.4 15
15:15 1031 30.45 860 25.4 4.1 39.4 39 -8.7 16.3
15:20 1031 30.45 860 25.4 3.5 38.3 43 -8.1 17.5
15:25 1031 30.45 860 25.4 3.5 38.2 43 -8 17.7
15:30 1031 30.45 860 25.4 3.3 38 43 -8.2 17.2
15:35 1031 30.45 860 25.4 3.3 37.9 43 -8.2 17.2
15:40 1031 30.45 860 25.4 3.4 38.1 42 -8.2 17.2
15:45 1031 30.45 860 25.4 3.8 38.9 40 -8.6 16.5
15:50 1031 30.45 860 25.4 4.1 39.4 42 -7.6 18.3
15:55 1031 30.45 860 25.4 4.1 39.4 44 -7.2 19
16:00 1031 30.45 860 25.4 3.8 38.8 44 -7.3 18.9
16:05 1031 30.45 860 25.4 3.4 38 46 -7.1 19.1
16:10 1031 30.45 860 25.4 3.1 37.6 48 -6.7 19.9
16:15 1031 30.45 860 25.4 2.6 36.8 52 -6.3 20.7
16:20 1031 30.45 860 25.4 2.3 36.1 52 -6.6 20.1
16:25 1031 30.45 860 25.4 2 35.5 54 -6.5 20.3
16:30 1031 30.45 860 25.4 1.6 34.9 55 -6.5 20.3
16:35 1031 30.45 860 25.4 1.3 34.3 56 -6.5 20.3
16:40 1031 30.45 860 25.4 1.1 33.9 56 -6.7 19.9
16:45 1031 30.45 860 25.4 0.7 33.3 57 -6.8 19.8
16:50 1031 30.45 860 25.4 0.3 32.6 59 -6.8 19.7
16:55 1031 30.45 860 25.4 0.1 32.1 60 -6.8 19.7
17:00 1031 30.45 860 25.4 -0.1 31.8 61 -6.8 19.7
17:05 1031 30.45 860 25.4 -0.4 31.2 62 -6.9 19.5
17:10 1031 30.45 860 25.4 -0.5 31.2 61 -7.1 19.2
17:15 1030 30.42 860 25.4 0.1 32.1 57 -7.4 18.7
17:20 1031 30.45 860 25.4 0.5 33 57 -7.1 19.3
17:25 1031 30.45 860 25.4 0.5 32.9 59 -6.7 20
17:30 1031 30.45 860 25.4 0.2 32.3 59 -7 19.4
17:35 1031 30.45 860 25.4 -0.1 31.9 58 -7.3 18.9
17:40 1031 30.45 860 25.4 -0 31.9 55 -8 17.5
17:45 1031 30.45 860 25.4 0.2 32.3 55 -7.8 18
17:50 1031 30.45 860 25.4 0.3 32.6 51 -8.6 16.6
17:55 1031 30.45 860 25.4 0.2 32.3 49 -9.3 15.3
18:00 1031 30.45 860 25.4 0.1 32.1 51 -8.9 16
18:05 1031 30.45 860 25.4 0 32.1 50 -9.2 15.5
18:10 1031 30.45 860 25.4 -0.2 31.6 53 -8.7 16.3
18:15 1031 30.45 860 25.4 -0.4 31.3 53 -8.9 16
18:20 1031 30.45 860 25.4 -0.7 30.7 57 -8.1 17.4
18:25 1031 30.45 860 25.4 -1.4 29.5 57 -8.7 16.3
18:30 1031 30.45 860 25.4 -1.2 29.9 56 -8.8 16.2
18:35 1031 30.45 860 25.4 -0.6 30.9 54 -8.8 16.2
18:40 1031 30.45 860 25.4 -0.1 31.8 52 -8.8 16.2
18:45 1031 30.45 860 25.4 0.2 32.4 53 -8.2 17.2
18:50 1031 30.45 860 25.4 0 32 55 -8 17.5
18:55 1031 30.45 860 25.4 -0.5 31.1 58 -7.8 18
19:00 1031 30.45 860 25.4 -0.8 30.6 58 -8.1 17.5
19:05 1031 30.45 860 25.4 -1 30.3 58 -8.1 17.4
19:10 1031 30.45 860 25.4 -1.6 29.2 61 -8.2 17.3
19:15 1031 30.45 860 25.4 -1.9 28.6 63 -7.9 17.7
19:20 1031 30.45 860 25.4 -2.3 27.8 64 -8.2 17.2
19:25 1031 30.45 860 25.4 -2.1 28.3 62 -8.3 17
19:30 1031 30.45 860 25.4 -1.3 29.7 59 -8.3 17.1
19:35 1031 30.45 860 25.4 -1.1 30 59 -8.1 17.4
19:40 1031 30.45 860 25.4 -1 30.2 58 -8.2 17.2
19:45 1031 30.45 860 25.4 -0.9 30.4 58 -8.1 17.4
19:50 1031 30.45 860 25.4 -1.3 29.7 60 -8 17.5
19:55 1031 30.45 860 25.4 -1.4 29.4 61 -8.1 17.5
20:00 1031 30.45 860 25.4 -1.6 29.2 60 -8.5 16.8
20:05 1031 30.45 860 25.4 -1.3 29.6 59 -8.3 17
20:10 1031 30.45 860 25.4 -1.2 29.8 58 -8.4 16.9
20:15 1031 30.45 860 25.4 -1 30.1 58 -8.4 16.9
20:20 1031 30.45 860 25.4 -0.7 30.7 58 -8 17.6
20:25 1031 30.45 860 25.4 -1.4 29.4 62 -7.9 17.8
20:30 1031 30.45 860 25.4 -1.6 29.1 63 -7.8 18
20:35 1031 30.45 860 25.4 -1.5 29.3 65 -7.3 18.9
20:40 1031 30.45 860 25.4 -2 28.4 69 -7 19.5
20:45 1031 30.45 860 25.4 -2.4 27.6 70 -7.2 19.1
20:50 1031 30.45 860 25.4 -2.6 27.4 65 -8.3 17.1
20:55 1031 30.45 860 25.4 -2 28.4 63 -8.2 17.3
21:00 1031 30.45 860 25.4 -1.7 29 59 -8.7 16.3
21:05 1031 30.45 860 25.4 -1.3 29.6 59 -8.3 17
21:10 1031 30.45 860 25.4 -1 30.2 58 -8.1 17.4
21:15 1031 30.45 860 25.4 -1.3 29.7 57 -8.7 16.4
21:20 1031 30.45 860 25.4 -1.4 29.6 57 -8.8 16.2
21:25 1031 30.45 860 25.4 -1.3 29.7 57 -8.7 16.4
21:30 1031 30.45 860 25.4 -1.5 29.3 59 -8.5 16.8
21:35 1031 30.45 860 25.4 -1.7 29 60 -8.5 16.7
21:40 1031 30.45 860 25.4 -1.9 28.6 60 -8.6 16.5
21:45 1031 30.45 860 25.4 -1.7 29 59 -8.6 16.5
21:50 1031 30.45 860 25.4 -1.3 29.6 57 -8.7 16.4
21:55 1031 30.45 860 25.4 -0.7 30.7 57 -8.2 17.2
22:00 1031 30.45 860 25.4 -1.2 29.8 61 -7.7 18.1
22:05 1031 30.45 860 25.4 -1.4 29.5 62 -7.8 18
22:10 1031 30.45 860 25.4 -1.4 29.4 62 -7.8 17.9
22:15 1031 30.45 860 25.4 -1.6 29.2 61 -8.1 17.4
22:20 1031 30.45 860 25.4 -1.7 28.9 62 -8.2 17.3
22:25 1031 30.45 860 25.4 -1.9 28.6 62 -8.2 17.3
22:30 1031 30.45 860 25.4 -2.3 27.9 64 -8.2 17.2
22:35 1031 30.45 860 25.4 -2.4 27.6 64 -8.4 16.9
22:40 1031 30.45 860 25.4 -2.1 28.3 62 -8.4 17
22:45 1031 30.45 860 25.4 -2 28.4 63 -8.2 17.2
22:50 1031 30.45 860 25.4 -2 28.4 63 -8.2 17.2
22:55 1031 30.45 860 25.4 -1.9 28.6 61 -8.4 16.9
23:00 1031 30.45 860 25.4 -2 28.4 61 -8.5 16.7
23:05 1031 30.45 860 25.4 -1.7 28.9 59 -8.7 16.3
23:10 1031 30.45 860 25.4 -1.4 29.4 60 -8.3 17
23:15 1031 30.45 860 25.4 -1.6 29.2 60 -8.3 17.1
23:20 1031 30.45 860 25.4 -1.6 29.2 61 -8.1 17.4
23:25 1031 30.45 860 25.4 -1.7 28.9 62 -8 17.6
23:30 1031 30.45 860 25.4 -1.7 28.9 62 -8 17.5
23:35 1031 30.45 860 25.4 -1.3 29.7 61 -7.9 17.8
23:40 1031 30.45 860 25.4 -1.2 29.8 60 -8 17.7
23:45 1031 30.45 860 25.4 -1 30.2 62 -7.3 18.8
23:50 1031 30.45 860 25.4 -1.5 29.3 64 -7.5 18.5
23:55 1031 30.45 860 25.4 -1.4 29.5 61 -8 17.6
24:00 1031 30.45 860 25.4 -1.2 29.8 59 -8.2 17.2